Kiamika, Canada
Current Conditions -  °F | °C
As of 5:00 PM on Saturday 20 Dec 2014 (Local Time) from CYND Reporting Station
Few Clouds Few Clouds  
Wind Chill:   Ceiling: Unl
Heat Index: 18°   Visibility: 15mi
Dew Point: 12°   Wind: 6mph
Humidity: 79%   Direction: 70°ENE
Pressure: 30.32"   Gusts: NA
Location:  46.42°N, 75.37°W
Report Text: CYND 202200Z 07005KT 15SM FEW220 M08/M11 A3032 RMK CI2 SLP272
Loading
Personal Weather Stations






























Interactive Weather Map New forecast layout! Learn more

10-Day Weather Forecast

Advertisements
Track Severe Weather on mobile